Time;durP1;ratioP1;P1;durP2;ratioP2;P2;SDS_P1;SDS_P2;PMS_P1;PMS_P2;Temp;Humidity;BMP_temperature;BMP_pressure;BME280_temperature;BME280_humidity;BME280_pressure;Samples;Min_cycle;Max_cycle;Signal;HPM_P1;HPM_P2
2023/09/13 00:03:44;;;;;;;10.73;3.58;;;;;;;16.94;100.00;101228.16;10307531;28;20442;-69
2023/09/13 00:08:45;;;;;;;11.65;2.78;;;;;;;16.91;100.00;101222.34;10308114;28;20046;-68
2023/09/13 00:13:45;;;;;;;7.95;3.15;;;;;;;16.86;100.00;101225.16;10291204;28;20035;-69
2023/09/13 00:18:46;;;;;;;7.80;2.67;;;;;;;16.81;100.00;101222.41;10322193;28;20038;-69
2023/09/13 00:23:47;;;;;;;10.05;3.40;;;;;;;16.81;100.00;101211.28;10316796;28;20092;-69
2023/09/13 00:28:48;;;;;;;11.00;2.60;;;;;;;16.72;100.00;101211.88;10313443;28;20421;-68
2023/09/13 00:33:51;;;;;;;6.72;2.25;;;;;;;16.73;100.00;101205.19;10320660;28;20043;-69
2023/09/13 00:38:51;;;;;;;10.32;3.58;;;;;;;16.64;100.00;101206.91;10322744;28;20072;-69
2023/09/13 00:43:55;;;;;;;10.07;2.80;;;;;;;16.55;100.00;101215.00;10328735;28;20051;-70
2023/09/13 00:48:56;;;;;;;14.13;2.88;;;;;;;16.41;100.00;101199.25;10333075;28;20385;-69
2023/09/13 00:53:56;;;;;;;9.70;2.30;;;;;;;16.47;100.00;101217.56;10315506;28;20098;-69
2023/09/13 00:58:57;;;;;;;9.60;2.40;;;;;;;16.42;100.00;101225.94;10314636;28;20038;-69
2023/09/13 01:03:57;;;;;;;12.35;2.80;;;;;;;16.39;100.00;101223.72;10317297;28;20058;-69
2023/09/13 01:08:58;;;;;;;10.60;3.13;;;;;;;16.41;100.00;101232.59;10319681;28;20090;-69
2023/09/13 01:13:58;;;;;;;9.35;2.53;;;;;;;16.32;100.00;101246.25;10320222;28;20104;-69
2023/09/13 01:19:17;;;;;;;10.85;2.47;;;;;;;16.27;100.00;101241.56;10314313;28;20035;-69
2023/09/13 01:24:39;;;;;;;9.88;3.03;;;;;;;16.22;100.00;101257.41;10315659;28;20074;-69
2023/09/13 01:29:40;;;;;;;8.13;3.50;;;;;;;16.14;100.00;101244.91;10315395;28;20129;-70
2023/09/13 01:34:40;;;;;;;12.80;2.40;;;;;;;16.21;100.00;101242.69;10321327;28;20428;-69
2023/09/13 01:39:40;;;;;;;10.20;3.50;;;;;;;16.19;100.00;101244.09;10321106;28;20533;-70
2023/09/13 01:44:41;;;;;;;7.25;2.63;;;;;;;16.20;100.00;101249.34;10296929;28;20038;-70
2023/09/13 01:49:42;;;;;;;8.13;2.80;;;;;;;16.15;100.00;101257.72;10320876;28;20450;-68
2023/09/13 01:54:42;;;;;;;8.95;2.40;;;;;;;16.08;100.00;101259.94;10313689;28;20042;-70
2023/09/13 01:59:43;;;;;;;11.00;2.58;;;;;;;15.67;100.00;101196.16;10321395;28;20065;-70
2023/09/13 02:04:43;;;;;;;10.55;2.67;;;;;;;16.10;100.00;101257.72;10314281;28;20046;-70
2023/09/13 02:09:44;;;;;;;13.25;3.25;;;;;;;16.07;100.00;101261.06;10302822;28;20042;-69
2023/09/13 02:14:44;;;;;;;9.88;3.13;;;;;;;15.98;100.00;101254.41;10316886;28;20043;-70
2023/09/13 02:19:48;;;;;;;14.02;2.38;;;;;;;15.91;100.00;101255.53;10318582;28;21022;-69
2023/09/13 02:24:48;;;;;;;15.25;2.95;;;;;;;15.93;100.00;101249.69;10317476;28;20042;-69
2023/09/13 02:29:49;;;;;;;7.28;2.50;;;;;;;15.84;100.00;101237.53;10317092;28;20031;-68
2023/09/13 02:34:49;;;;;;;11.73;3.38;;;;;;;15.82;100.00;101246.13;10319980;28;20050;-69
2023/09/13 02:39:50;;;;;;;11.65;2.90;;;;;;;15.63;100.00;101233.91;10313535;28;20117;-69
2023/09/13 02:44:50;;;;;;;6.60;2.97;;;;;;;15.62;100.00;101251.66;10317568;28;20070;-69
2023/09/13 02:49:51;;;;;;;9.95;3.20;;;;;;;15.61;100.00;101259.16;10319440;28;20038;-69
2023/09/13 02:54:51;;;;;;;11.88;3.20;;;;;;;15.60;100.00;101251.13;10310642;28;20070;-69
2023/09/13 02:59:52;;;;;;;11.35;3.50;;;;;;;15.59;100.00;101252.25;10310514;28;20038;-68
2023/09/13 03:04:53;;;;;;;7.80;2.95;;;;;;;15.56;100.00;101253.59;10304071;28;20046;-69
2023/09/13 03:09:54;;;;;;;11.23;3.33;;;;;;;15.54;100.00;101256.69;10315289;28;20051;-69
2023/09/13 03:14:56;;;;;;;10.82;2.92;;;;;;;15.61;100.00;101261.13;10315637;28;20065;-69
2023/09/13 03:19:56;;;;;;;9.05;2.90;;;;;;;15.63;100.00;101250.56;10313473;28;20031;-69
2023/09/13 03:24:57;;;;;;;10.02;3.38;;;;;;;15.62;100.00;101243.34;10316628;28;20035;-70
2023/09/13 03:30:00;;;;;;;11.65;3.25;;;;;;;15.58;100.00;101245.00;10313981;28;20049;-68
2023/09/13 03:35:01;;;;;;;7.15;2.70;;;;;;;15.58;100.00;101250.56;10314736;28;20035;-69
2023/09/13 03:40:01;;;;;;;9.07;2.40;;;;;;;15.52;100.00;101231.16;10315509;28;20061;-69
2023/09/13 03:45:02;;;;;;;9.50;2.90;;;;;;;15.58;100.00;101256.94;10310193;28;20043;-69
2023/09/13 03:50:03;;;;;;;6.55;1.80;;;;;;;15.39;100.00;101248.34;10316402;28;20038;-69
2023/09/13 03:55:05;;;;;;;8.75;3.88;;;;;;;15.44;100.00;101267.78;10308221;28;20045;-69
2023/09/13 04:00:12;;;;;;;6.88;2.20;;;;;;;15.27;100.00;101242.25;10312633;28;20039;-68
2023/09/13 04:05:13;;;;;;;8.48;1.77;;;;;;;15.39;100.00;101259.44;10315778;28;20501;-69
2023/09/13 04:10:13;;;;;;;14.07;2.05;;;;;;;15.37;100.00;101253.34;10315098;28;20053;-69
2023/09/13 04:15:14;;;;;;;7.80;1.80;;;;;;;15.22;100.00;101264.44;10309443;28;20042;-68
2023/09/13 04:20:14;;;;;;;5.07;1.40;;;;;;;15.13;100.00;101262.22;10317707;28;20099;-69
2023/09/13 04:25:15;;;;;;;9.63;1.52;;;;;;;15.00;100.00;101268.28;10325564;28;20386;-69
2023/09/13 04:30:15;;;;;;;4.07;1.10;;;;;;;14.94;100.00;101269.38;10302977;28;20125;-68
2023/09/13 04:35:17;;;;;;;7.28;1.42;;;;;;;14.90;100.00;101263.56;10322997;28;20031;-69
2023/09/13 04:40:17;;;;;;;5.93;1.40;;;;;;;14.87;100.00;101275.19;10324678;28;20035;-70
2023/09/13 04:45:18;;;;;;;4.18;1.63;;;;;;;14.82;100.00;101280.75;10319502;28;20058;-68
2023/09/13 04:50:18;;;;;;;6.50;1.48;;;;;;;14.76;100.00;101284.59;10320888;28;20050;-69
2023/09/13 04:55:19;;;;;;;9.80;2.08;;;;;;;14.64;100.00;101290.38;10320709;28;20054;-69
2023/09/13 05:00:20;;;;;;;6.03;1.80;;;;;;;14.56;100.00;101296.44;10320877;28;20038;-69
2023/09/13 05:05:20;;;;;;;9.70;1.80;;;;;;;14.56;100.00;101310.28;10290827;28;20066;-68
2023/09/13 05:10:21;;;;;;;10.65;2.33;;;;;;;14.51;100.00;101313.84;10330551;28;20655;-69
2023/09/13 05:15:21;;;;;;;5.47;1.95;;;;;;;14.51;100.00;101316.63;10294006;28;20043;-69
2023/09/13 05:20:21;;;;;;;8.48;1.58;;;;;;;14.47;100.00;101320.16;10322029;28;20042;-69
2023/09/13 05:25:22;;;;;;;10.93;1.70;;;;;;;14.41;100.00;101322.09;10315372;28;20061;-69
2023/09/13 05:30:23;;;;;;;8.25;1.27;;;;;;;14.43;100.00;101325.44;10319328;28;20049;-70
2023/09/13 05:35:23;;;;;;;8.27;2.67;;;;;;;14.42;100.00;101340.38;10319055;28;20039;-70
2023/09/13 05:40:27;;;;;;;12.80;1.77;;;;;;;14.24;100.00;101354.66;10313267;28;20035;-69
2023/09/13 05:45:28;;;;;;;7.00;1.50;;;;;;;14.15;100.00;101368.19;10291270;28;20038;-69
2023/09/13 05:50:28;;;;;;;5.03;1.63;;;;;;;14.10;100.00;101396.69;10314203;28;20724;-70
2023/09/13 05:55:28;;;;;;;6.28;2.00;;;;;;;14.13;100.00;101414.69;10318697;28;20074;-68
2023/09/13 06:00:29;;;;;;;4.50;1.50;;;;;;;14.18;100.00;101416.66;10319052;28;20134;-68
2023/09/13 06:05:29;;;;;;;7.10;2.00;;;;;;;14.15;100.00;101418.03;10301938;28;20046;-69
2023/09/13 06:10:30;;;;;;;11.60;2.03;;;;;;;14.25;100.00;101433.91;10316758;28;20049;-69
2023/09/13 06:15:30;;;;;;;8.55;1.90;;;;;;;14.29;100.00;101452.47;10326508;28;20039;-70
2023/09/13 06:20:31;;;;;;;8.60;1.50;;;;;;;14.24;100.00;101471.84;10319229;28;20038;-69
2023/09/13 06:25:31;;;;;;;4.07;1.90;;;;;;;14.23;100.00;101489.53;10314904;28;20042;-69
2023/09/13 06:30:32;;;;;;;5.82;1.90;;;;;;;14.15;100.00;101501.09;10310790;28;20031;-69
2023/09/13 06:35:32;;;;;;;5.60;2.17;;;;;;;14.10;100.00;101493.59;10318067;28;20494;-70
2023/09/13 06:40:35;;;;;;;12.52;2.80;;;;;;;14.08;100.00;101495.78;10318787;28;20521;-69
2023/09/13 06:45:35;;;;;;;11.32;2.58;;;;;;;14.00;100.00;101492.66;10312656;28;20050;-69
2023/09/13 06:50:35;;;;;;;9.25;2.13;;;;;;;13.96;100.00;101505.34;10316303;28;20817;-69
2023/09/13 06:55:36;;;;;;;5.68;2.10;;;;;;;13.64;100.00;101508.88;10314897;28;20415;-69
2023/09/13 07:00:36;;;;;;;10.82;2.80;;;;;;;13.67;100.00;101523.03;10289092;28;20426;-67
2023/09/13 07:05:37;;;;;;;7.05;2.38;;;;;;;13.22;100.00;101482.63;10315193;28;20050;-68
2023/09/13 07:10:38;;;;;;;11.90;6.57;;;;;;;13.78;100.00;101550.81;10312227;28;20030;-69
2023/09/13 07:15:39;;;;;;;14.98;7.50;;;;;;;13.68;100.00;101563.47;10312808;28;20050;-69
2023/09/13 07:20:39;;;;;;;8.70;2.90;;;;;;;13.50;100.00;101561.84;10315531;28;20039;-68
2023/09/13 07:25:40;;;;;;;14.82;3.97;;;;;;;13.54;100.00;101556.66;10313666;28;20130;-68
2023/09/13 07:30:40;;;;;;;17.55;3.67;;;;;;;13.49;100.00;101571.22;10315887;28;20070;-68
2023/09/13 07:35:41;;;;;;;13.40;3.47;;;;;;;13.49;100.00;101571.22;10313683;28;20376;-69
2023/09/13 07:40:41;;;;;;;10.52;2.67;;;;;;;13.57;100.00;101564.41;10307007;28;20043;-69
2023/09/13 07:45:42;;;;;;;9.05;3.70;;;;;;;13.67;100.00;101560.94;10307933;28;20532;-69
2023/09/13 07:50:42;;;;;;;9.05;4.40;;;;;;;13.41;100.00;101510.81;10323144;28;20591;-68
2023/09/13 07:55:43;;;;;;;10.15;3.15;;;;;;;13.80;100.00;101570.78;10327025;28;20049;-68
2023/09/13 08:00:45;;;;;;;10.00;2.50;;;;;;;13.90;100.00;101571.72;10329791;28;20058;-69
2023/09/13 08:05:47;;;;;;;9.02;2.80;;;;;;;14.04;100.00;101588.78;10321514;28;20042;-68
2023/09/13 08:10:48;;;;;;;14.52;3.25;;;;;;;14.08;100.00;101566.94;10322575;28;20062;-69
2023/09/13 08:15:49;;;;;;;9.93;2.38;;;;;;;14.12;100.00;101579.16;10312741;28;20154;-68
2023/09/13 08:20:50;;;;;;;13.82;2.50;;;;;;;14.12;100.00;101585.53;10300084;28;20048;-68
2023/09/13 08:25:50;;;;;;;10.48;2.33;;;;;;;14.17;100.00;101581.97;10313446;28;20063;-69
2023/09/13 08:30:51;;;;;;;11.07;3.53;;;;;;;14.23;100.00;101594.78;10319779;28;20034;-70
2023/09/13 08:35:51;;;;;;;8.15;2.22;;;;;;;14.43;100.00;101596.09;10318419;28;20054;-70
2023/09/13 08:40:54;;;;;;;13.20;2.80;;;;;;;14.53;100.00;101596.16;10323176;28;20038;-69
2023/09/13 08:45:54;;;;;;;8.32;2.13;;;;;;;14.44;100.00;101612.44;10316689;28;20125;-70
2023/09/13 08:50:55;;;;;;;9.48;1.98;;;;;;;14.63;100.00;101610.13;10310982;28;20053;-69
2023/09/13 08:55:55;;;;;;;7.38;2.08;;;;;;;14.85;100.00;101618.38;10316837;28;20054;-69
2023/09/13 09:00:56;;;;;;;8.98;1.98;;;;;;;15.13;100.00;101603.34;10298678;28;21550;-69
2023/09/13 09:05:57;;;;;;;9.02;2.00;;;;;;;15.33;100.00;101635.06;10302340;28;20401;-68
2023/09/13 09:10:59;;;;;;;8.27;2.17;;;;;;;15.65;100.00;101640.53;10299566;28;20039;-69
2023/09/13 09:15:59;;;;;;;7.25;1.45;;;;;;;15.84;100.00;101642.88;10324054;28;20101;-70
2023/09/13 09:21:00;;;;;;;12.23;2.33;;;;;;;15.79;100.00;101662.28;10312172;28;20117;-68
2023/09/13 09:26:03;;;;;;;11.10;2.05;;;;;;;15.76;100.00;101663.66;10319636;28;20038;-68
2023/09/13 09:31:04;;;;;;;6.53;1.30;;;;;;;15.81;100.00;101669.22;10316801;28;20118;-69
2023/09/13 09:36:04;;;;;;;10.43;1.48;;;;;;;15.93;100.00;101694.84;10302098;28;20109;-69
2023/09/13 09:41:06;;;;;;;5.53;1.75;;;;;;;15.99;100.00;101701.25;10297687;28;20047;-69
2023/09/13 09:46:07;;;;;;;6.80;1.25;;;;;;;16.24;100.00;101708.84;10301297;28;20432;-69
2023/09/13 09:51:08;;;;;;;9.43;2.17;;;;;;;16.30;100.00;101716.09;10303437;28;20043;-69
2023/09/13 09:56:10;;;;;;;9.63;1.90;;;;;;;16.49;100.00;101733.09;10285125;28;20049;-68
2023/09/13 10:01:18;;;;;;;10.35;2.08;;;;;;;16.38;100.00;101725.03;10280738;28;20101;-69
2023/09/13 10:06:18;;;;;;;6.57;2.05;;;;;;;16.69;100.00;101737.06;10288744;28;20106;-68
2023/09/13 10:11:20;;;;;;;9.88;2.92;;;;;;;16.75;100.00;101755.44;10302223;28;20050;-69
2023/09/13 10:16:22;;;;;;;7.70;1.65;;;;;;;16.80;100.00;101757.38;10300175;28;20038;-67
2023/09/13 10:21:24;;;;;;;11.57;3.45;;;;;;;17.02;100.00;101763.56;10274139;28;20046;-68
2023/09/13 10:26:25;;;;;;;7.15;2.15;;;;;;;17.00;100.00;101765.81;10300500;28;20059;-67
2023/09/13 10:31:29;;;;;;;9.30;2.38;;;;;;;16.96;100.00;101777.75;10302161;28;20739;-68
2023/09/13 10:36:33;;;;;;;9.80;1.48;;;;;;;16.88;100.00;101774.41;10298780;28;20035;-67
2023/09/13 10:41:41;;;;;;;4.00;1.73;;;;;;;16.86;100.00;101776.63;10303250;28;20049;-67
2023/09/13 10:46:42;;;;;;;5.05;1.30;;;;;;;16.98;100.00;101779.16;10276537;28;20109;-68
2023/09/13 10:51:42;;;;;;;14.10;3.05;;;;;;;17.28;100.00;101766.38;10301662;28;20042;-67
2023/09/13 10:56:42;;;;;;;5.38;1.23;;;;;;;17.85;100.00;101784.75;10294736;28;20047;-68
2023/09/13 11:01:46;;;;;;;6.13;1.92;;;;;;;18.05;100.00;101769.13;10296163;28;20045;-68
2023/09/13 11:06:48;;;;;;;4.20;1.08;;;;;;;17.97;100.00;101767.72;10314702;28;20494;-68
2023/09/13 11:11:51;;;;;;;11.23;2.15;;;;;;;18.12;100.00;101780.78;10293981;28;20056;-67
2023/09/13 11:16:52;;;;;;;6.53;1.33;;;;;;;17.98;100.00;101797.25;10294584;28;20502;-67
2023/09/13 11:21:59;;;;;;;5.97;1.88;;;;;;;17.91;100.00;101780.84;10314880;28;20076;-68
2023/09/13 11:27:26;;;;;;;4.57;1.40;;;;;;;18.08;100.00;101801.97;10299735;28;20058;-67
2023/09/13 11:32:29;;;;;;;5.32;1.65;;;;;;;18.06;100.00;101813.38;10299297;28;20038;-68
2023/09/13 11:37:30;;;;;;;5.13;1.35;;;;;;;18.39;100.00;101802.69;10293439;28;20047;-66
2023/09/13 11:42:31;;;;;;;3.72;1.15;;;;;;;18.70;100.00;101814.56;10284600;28;20050;-67
2023/09/13 11:47:34;;;;;;;4.72;1.15;;;;;;;19.82;100.00;101814.94;10306237;28;20031;-67
2023/09/13 11:53:04;;;;;;;5.50;1.95;;;;;;;19.93;100.00;101818.47;10309246;28;20573;-67
2023/09/13 11:58:05;;;;;;;8.48;1.20;;;;;;;19.81;100.00;101816.06;10302686;28;20043;-68
2023/09/13 12:03:05;;;;;;;3.92;0.88;;;;;;;20.26;100.00;101827.91;10282113;28;20050;-68
2023/09/13 12:08:22;;;;;;;2.35;0.90;;;;;;;20.07;100.00;101808.28;10309241;28;20043;-68
2023/09/13 12:13:43;;;;;;;4.78;1.02;;;;;;;20.20;100.00;101817.09;10304360;28;20035;-69
2023/09/13 12:18:43;;;;;;;5.65;1.33;;;;;;;19.98;100.00;101814.78;10310770;28;20031;-68
2023/09/13 12:23:46;;;;;;;5.13;1.20;;;;;;;19.84;100.00;101831.41;10306957;28;20062;-68
2023/09/13 12:28:46;;;;;;;5.82;1.00;;;;;;;20.00;100.00;101835.72;10303808;28;20055;-67
2023/09/13 12:33:48;;;;;;;4.65;1.17;;;;;;;19.73;100.00;101850.22;10297052;28;20066;-67
2023/09/13 12:38:49;;;;;;;4.43;1.25;;;;;;;19.89;100.00;101848.97;10294267;28;20369;-68
2023/09/13 12:43:50;;;;;;;7.20;1.67;;;;;;;20.66;100.00;101844.53;10300313;28;20494;-68
2023/09/13 12:48:50;;;;;;;6.88;1.10;;;;;;;20.62;100.00;101847.09;10310963;28;20042;-67
2023/09/13 12:53:51;;;;;;;7.70;1.17;;;;;;;19.93;100.00;101864.03;10314159;28;20470;-66
2023/09/13 12:58:53;;;;;;;10.75;1.70;;;;;;;18.52;100.00;101874.63;10320852;28;20042;-68
2023/09/13 13:03:57;;;;;;;5.15;2.00;;;;;;;17.94;100.00;101897.28;10303751;28;20042;-67
2023/09/13 13:09:08;;;;;;;8.43;1.00;;;;;;;17.73;100.00;101901.97;10301914;28;20053;-66
2023/09/13 13:14:12;;;;;;;10.80;1.98;;;;;;;17.67;100.00;101916.19;10296769;28;20074;-66
2023/09/13 13:19:13;;;;;;;4.85;1.00;;;;;;;17.59;100.00;101895.31;10305614;28;20049;-67
2023/09/13 13:24:13;;;;;;;8.07;2.67;;;;;;;17.86;100.00;101911.78;10320426;28;20046;-67
2023/09/13 13:29:14;;;;;;;5.25;1.90;;;;;;;18.09;100.00;101902.00;10316033;28;20054;-67
2023/09/13 13:34:18;;;;;;;9.68;1.50;;;;;;;18.52;100.00;101879.34;10322123;28;20046;-67
2023/09/13 13:39:18;;;;;;;7.00;1.10;;;;;;;19.20;100.00;101877.94;10310593;28;20332;-67
2023/09/13 13:44:19;;;;;;;2.42;0.82;;;;;;;19.35;100.00;101875.09;10317442;28;20057;-68
2023/09/13 13:49:19;;;;;;;5.68;0.90;;;;;;;19.36;100.00;101896.28;10316394;28;20039;-67
2023/09/13 13:54:20;;;;;;;4.38;1.48;;;;;;;19.26;100.00;101890.75;10318073;28;20069;-68
2023/09/13 13:59:21;;;;;;;7.18;1.10;;;;;;;19.14;100.00;101897.53;10318378;28;20046;-68
2023/09/13 14:04:21;;;;;;;4.30;1.30;;;;;;;18.82;100.00;101906.31;10317139;28;20411;-68
2023/09/13 14:09:22;;;;;;;9.15;1.40;;;;;;;18.88;100.00;101912.72;10316928;28;20042;-68
2023/09/13 14:14:22;;;;;;;4.15;1.35;;;;;;;18.69;100.00;101902.16;10313988;28;20039;-68
2023/09/13 14:19:22;;;;;;;5.35;1.42;;;;;;;18.63;100.00;101900.50;10318342;28;20097;-68
2023/09/13 14:24:23;;;;;;;4.35;1.13;;;;;;;18.87;100.00;101902.66;10312573;28;20043;-67
2023/09/13 14:29:23;;;;;;;4.88;1.15;;;;;;;19.03;100.00;101901.47;10308885;28;22082;-68
2023/09/13 14:34:25;;;;;;;6.25;1.50;;;;;;;18.62;100.00;101895.22;10320928;28;20061;-67
2023/09/13 14:39:26;;;;;;;5.30;1.20;;;;;;;18.47;100.00;101916.44;10313323;28;20061;-69
2023/09/13 14:44:26;;;;;;;3.35;1.20;;;;;;;18.41;100.00;101916.75;10301669;28;20046;-69
2023/09/13 14:49:27;;;;;;;5.82;1.55;;;;;;;18.38;100.00;101929.28;10309115;28;20031;-68
2023/09/13 14:54:27;;;;;;;5.05;0.95;;;;;;;18.17;100.00;101925.69;10315335;28;20050;-68
2023/09/13 14:59:28;;;;;;;7.38;1.40;;;;;;;18.28;100.00;101934.88;10286827;28;20066;-67
2023/09/13 15:04:29;;;;;;;4.53;1.20;;;;;;;18.27;100.00;101936.84;10315006;28;20038;-68
2023/09/13 15:09:29;;;;;;;7.45;1.63;;;;;;;18.40;100.00;101937.34;10314990;28;20450;-69
2023/09/13 15:14:30;;;;;;;6.13;1.00;;;;;;;18.37;100.00;101947.13;10310480;28;20034;-69
2023/09/13 15:19:30;;;;;;;8.60;2.10;;;;;;;18.29;100.00;101950.47;10311646;28;20038;-69
2023/09/13 15:24:36;;;;;;;6.70;1.55;;;;;;;18.38;100.00;101959.13;10317380;28;20042;-69
2023/09/13 15:29:36;;;;;;;4.78;1.35;;;;;;;18.38;100.00;101965.53;10311051;28;20042;-67
2023/09/13 15:34:37;;;;;;;5.43;1.10;;;;;;;18.20;100.00;101944.63;10318964;28;20045;-68
2023/09/13 15:39:38;;;;;;;5.22;1.25;;;;;;;18.35;100.00;101952.16;10305520;28;20038;-67
2023/09/13 15:44:38;;;;;;;7.45;2.10;;;;;;;18.16;100.00;101965.81;10308244;28;20050;-68
2023/09/13 15:49:39;;;;;;;4.65;1.15;;;;;;;18.09;100.00;101977.25;10302376;28;20042;-69
2023/09/13 15:54:39;;;;;;;5.25;1.55;;;;;;;18.04;100.00;101976.41;10316917;28;20045;-68
2023/09/13 15:59:40;;;;;;;6.07;1.73;;;;;;;17.88;100.00;101973.63;10312811;28;20046;-68
2023/09/13 16:04:40;;;;;;;4.03;1.33;;;;;;;17.52;100.00;101967.94;10252290;28;20066;-68
2023/09/13 16:09:41;;;;;;;5.03;1.00;;;;;;;17.07;100.00;101949.97;10244380;28;20058;-68
2023/09/13 16:14:42;;;;;;;9.52;1.10;;;;;;;17.02;100.00;101976.97;10245590;28;20039;-68
2023/09/13 16:19:43;;;;;;;5.75;1.25;;;;;;;16.88;100.00;101966.31;10247787;28;20051;-68
2023/09/13 16:24:43;;;;;;;4.00;1.45;;;;;;;16.73;100.00;101994.84;10246643;28;20078;-69
2023/09/13 16:29:44;;;;;;;2.17;0.82;;;;;;;16.61;100.00;101996.97;10245720;28;20042;-69
2023/09/13 16:34:45;;;;;;;4.03;1.00;;;;;;;16.25;100.00;101960.59;10268016;28;20046;-69
2023/09/13 16:39:45;;;;;;;5.75;1.15;;;;;;;16.40;100.00;102018.25;10272837;28;20067;-68
2023/09/13 16:44:46;;;;;;;7.18;1.27;;;;;;;16.20;100.00;102002.22;10267536;28;20101;-68
2023/09/13 16:49:46;;;;;;;5.28;1.15;;;;;;;16.07;100.00;102013.78;10247509;28;20058;-69
2023/09/13 16:54:47;;;;;;;6.50;1.38;;;;;;;15.88;100.00;102032.78;10251247;28;20074;-68
2023/09/13 16:59:47;;;;;;;7.63;1.23;;;;;;;15.65;100.00;102033.88;10259257;28;20051;-68
2023/09/13 17:04:48;;;;;;;6.70;1.33;;;;;;;15.57;100.00;102026.03;10256365;28;20042;-67
2023/09/13 17:09:48;;;;;;;5.75;1.10;;;;;;;15.54;100.00;102039.31;10259208;28;20043;-69
2023/09/13 17:14:49;;;;;;;4.13;0.95;;;;;;;15.31;100.00;102028.47;10254557;28;20433;-68
2023/09/13 17:19:49;;;;;;;6.00;1.23;;;;;;;15.20;100.00;102038.59;10248045;28;20553;-68
2023/09/13 17:24:50;;;;;;;9.07;2.72;;;;;;;15.04;100.00;102043.09;10251600;28;20055;-68
2023/09/13 17:29:50;;;;;;;6.68;1.08;;;;;;;14.87;100.00;102048.69;10253570;28;20042;-68
2023/09/13 17:34:51;;;;;;;6.25;2.03;;;;;;;14.80;100.00;102061.03;10248700;28;20050;-68
2023/09/13 17:39:51;;;;;;;7.80;1.25;;;;;;;14.68;100.00;102056.44;10256157;28;20039;-67
2023/09/13 17:44:52;;;;;;;6.35;1.45;;;;;;;14.51;100.00;102064.72;10242730;28;20522;-68
2023/09/13 17:49:52;;;;;;;2.53;1.02;;;;;;;14.24;100.00;102080.31;10253790;28;20117;-67
2023/09/13 17:54:53;;;;;;;8.07;1.42;;;;;;;13.99;100.00;102088.97;10259832;28;20046;-68
2023/09/13 17:59:53;;;;;;;3.80;0.98;;;;;;;13.75;100.00;102078.03;10320109;28;20093;-67
2023/09/13 18:04:59;;;;;;;11.88;1.90;;;;;;;13.57;100.00;102083.72;10318833;28;20039;-68
2023/09/13 18:09:59;;;;;;;5.70;1.30;;;;;;;12.24;100.00;101908.31;10320304;28;20066;-67
2023/09/13 18:15:00;;;;;;;5.80;1.23;;;;;;;13.20;100.00;102086.78;10316075;28;20113;-67
2023/09/13 18:20:00;;;;;;;10.73;1.65;;;;;;;13.07;100.00;102113.59;10318972;28;20070;-68
2023/09/13 18:25:01;;;;;;;8.23;1.80;;;;;;;12.89;100.00;102105.41;10323447;28;20046;-68
2023/09/13 18:30:02;;;;;;;6.22;1.33;;;;;;;12.82;100.00;102108.31;10300351;28;20045;-67
2023/09/13 18:35:03;;;;;;;3.03;1.45;;;;;;;12.68;100.00;102117.91;10317561;28;20038;-68
2023/09/13 18:40:04;;;;;;;5.60;1.50;;;;;;;12.58;100.00;102125.94;10317099;28;20042;-68
2023/09/13 18:45:05;;;;;;;5.32;1.40;;;;;;;12.49;100.00;102130.97;10318025;28;20486;-68
2023/09/13 18:50:06;;;;;;;4.30;1.40;;;;;;;12.34;100.00;102138.81;10319996;28;20041;-68
2023/09/13 18:55:08;;;;;;;6.57;1.52;;;;;;;12.24;100.00;102145.78;10313555;28;20038;-68
2023/09/13 19:00:09;;;;;;;3.95;1.70;;;;;;;12.12;100.00;102136.59;10310259;28;20463;-67
2023/09/13 19:05:10;;;;;;;3.67;1.38;;;;;;;12.02;100.00;102137.16;10295808;28;20054;-68
2023/09/13 19:10:11;;;;;;;9.85;2.08;;;;;;;11.87;100.00;102136.69;10299295;28;20043;-68
2023/09/13 19:15:11;;;;;;;3.97;1.27;;;;;;;11.75;100.00;102144.06;10295802;28;20051;-68
2023/09/13 19:20:12;;;;;;;5.38;2.13;;;;;;;11.65;100.00;102152.88;10312483;28;20046;-68
2023/09/13 19:25:12;;;;;;;7.78;1.73;;;;;;;11.57;100.00;102167.81;10323791;28;20047;-68
2023/09/13 19:30:13;;;;;;;5.78;1.50;;;;;;;11.49;100.00;102159.84;10317118;28;20069;-68
2023/09/13 19:35:14;;;;;;;12.70;3.17;;;;;;;11.42;100.00;102164.59;10311626;28;20050;-68
2023/09/13 19:40:15;;;;;;;6.00;1.70;;;;;;;11.39;100.00;102182.44;10312618;28;20034;-67
2023/09/13 19:45:15;;;;;;;6.75;1.63;;;;;;;11.15;100.00;102156.59;10313268;28;20046;-68
2023/09/13 19:50:15;;;;;;;2.88;1.40;;;;;;;11.22;100.00;102184.09;10296723;28;20049;-68
2023/09/13 19:55:16;;;;;;;12.30;1.77;;;;;;;11.16;100.00;102176.72;10300669;28;20084;-67
2023/09/13 20:00:16;;;;;;;5.28;2.70;;;;;;;11.14;100.00;102185.25;10314435;28;20039;-67
2023/09/13 20:05:17;;;;;;;6.85;1.63;;;;;;;11.09;100.00;102187.81;10306012;28;20043;-68
2023/09/13 20:10:18;;;;;;;3.65;1.95;;;;;;;11.09;100.00;102194.16;10285773;28;20051;-67
2023/09/13 20:15:22;;;;;;;5.40;1.80;;;;;;;11.02;100.00;102193.38;10302521;28;20035;-67
2023/09/13 20:20:23;;;;;;;6.35;1.55;;;;;;;10.89;100.00;102172.31;10317273;28;20425;-68
2023/09/13 20:25:23;;;;;;;6.40;1.77;;;;;;;10.92;100.00;102193.03;10312793;28;20053;-67
2023/09/13 20:30:24;;;;;;;4.07;1.88;;;;;;;10.84;100.00;102196.91;10312862;28;20038;-68
2023/09/13 20:35:24;;;;;;;18.23;3.35;;;;;;;10.81;100.00;102208.41;10308724;28;20049;-67
2023/09/13 20:40:25;;;;;;;10.52;1.75;;;;;;;10.80;100.00;102211.38;10313750;28;20125;-68
2023/09/13 20:45:25;;;;;;;8.15;2.30;;;;;;;10.81;100.00;102213.03;10313807;28;20055;-68
2023/09/13 20:50:26;;;;;;;5.28;1.88;;;;;;;10.83;100.00;102200.75;10316977;28;20034;-68
2023/09/13 20:55:28;;;;;;;10.68;3.00;;;;;;;10.88;100.00;102197.31;10314431;28;20039;-67
2023/09/13 21:00:28;;;;;;;5.82;2.90;;;;;;;10.94;100.00;102199.19;10319992;28;20379;-68
2023/09/13 21:05:29;;;;;;;7.40;2.20;;;;;;;11.01;100.00;102205.47;10302049;28;20494;-69
2023/09/13 21:10:30;;;;;;;12.02;2.75;;;;;;;11.05;100.00;102195.69;10303174;28;20039;-68
2023/09/13 21:15:36;;;;;;;12.60;3.05;;;;;;;11.18;100.00;102202.16;10303868;28;20072;-66
2023/09/13 21:20:37;;;;;;;5.97;1.98;;;;;;;11.28;100.00;102208.00;10325056;28;20042;-68
2023/09/13 21:25:37;;;;;;;8.50;3.20;;;;;;;11.29;100.00;102204.19;10302159;28;20051;-68
2023/09/13 21:30:38;;;;;;;6.35;2.50;;;;;;;11.39;100.00;102212.78;10310895;28;20043;-68
2023/09/13 21:35:40;;;;;;;11.10;3.10;;;;;;;11.46;100.00;102227.31;10321737;28;20081;-68
2023/09/13 21:40:40;;;;;;;10.25;3.05;;;;;;;11.43;100.00;102229.69;10307469;28;20074;-68
2023/09/13 21:45:41;;;;;;;10.48;3.75;;;;;;;11.42;100.00;102225.25;10284243;28;20057;-69
2023/09/13 21:50:43;;;;;;;9.20;3.28;;;;;;;11.34;100.00;102223.63;10320857;28;20038;-67
2023/09/13 21:55:43;;;;;;;8.77;4.20;;;;;;;11.08;100.00;102199.91;10320423;28;20042;-68
2023/09/13 22:00:44;;;;;;;9.63;3.63;;;;;;;11.21;100.00;102230.09;10318507;28;20090;-69
2023/09/13 22:05:45;;;;;;;5.78;2.85;;;;;;;11.25;100.00;102225.00;10315025;28;20042;-68
2023/09/13 22:10:45;;;;;;;6.82;3.55;;;;;;;11.28;100.00;102230.88;10318778;28;20046;-68
2023/09/13 22:15:46;;;;;;;8.27;3.13;;;;;;;11.32;100.00;102231.28;10312836;28;20572;-69
2023/09/13 22:20:47;;;;;;;5.32;2.97;;;;;;;11.31;100.00;102224.94;10321042;28;20039;-68
2023/09/13 22:25:47;;;;;;;9.68;2.63;;;;;;;11.32;100.00;102220.25;10312949;28;20058;-68
2023/09/13 22:30:48;;;;;;;8.48;2.60;;;;;;;11.33;100.00;102227.47;10303155;28;20401;-69
2023/09/13 22:35:48;;;;;;;6.85;2.83;;;;;;;11.29;100.00;102227.06;10312952;28;20053;-67
2023/09/13 22:40:49;;;;;;;8.45;3.35;;;;;;;11.30;100.00;102222.38;10313105;28;20049;-68
2023/09/13 22:45:49;;;;;;;9.27;3.25;;;;;;;11.05;100.00;102187.41;10317082;28;20058;-68